SWA3311 KMAF-KDAL
Flight info
| Callsign | SWA3311 |
|---|---|
| Flight time | N/A |
| Altitude | 35000 |
| Route | BGTOE BACHR4 |
| Aircraft | B738/M-SDE2E3FGHIRWXY/LB1 |
Departure
| Time | 2026-04-24 22:37 |
|---|---|
| Airport | Midland International Air and Space Port (KMAF) |
Arrival
| Time | N/A |
|---|---|
| Airport | Dallas Love Field (KDAL) |
| Time | Latitude | Longitude | Altitude | Speed | Heading |
|---|---|---|---|---|---|
| 2026-04-24 21:48 | 31.93777 | -102.20720 | 2860 ft | 0 kts | 269° |
| 2026-04-24 22:25 | 31.93777 | -102.20715 | 2860 ft | 2 kts | 269° |
| 2026-04-24 22:26 | 31.93777 | -102.20698 | 2859 ft | 2 kts | 269° |
| 2026-04-24 22:26 | 31.93777 | -102.20680 | 2859 ft | 2 kts | 269° |
| 2026-04-24 22:26 | 31.93778 | -102.20664 | 2859 ft | 1 kts | 269° |
| 2026-04-24 22:26 | 31.93778 | -102.20651 | 2859 ft | 2 kts | 261° |
| 2026-04-24 22:27 | 31.93783 | -102.20634 | 2859 ft | 2 kts | 240° |
| 2026-04-24 22:27 | 31.93792 | -102.20621 | 2859 ft | 2 kts | 222° |
| 2026-04-24 22:27 | 31.93804 | -102.20611 | 2859 ft | 2 kts | 205° |
| 2026-04-24 22:27 | 31.93819 | -102.20606 | 2859 ft | 2 kts | 187° |
| 2026-04-24 22:28 | 31.93828 | -102.20605 | 2859 ft | 0 kts | 175° |
| 2026-04-24 22:28 | 31.93835 | -102.20606 | 2859 ft | 0 kts | 173° |
| 2026-04-24 22:30 | 31.93832 | -102.20606 | 2859 ft | 1 kts | 173° |
| 2026-04-24 22:30 | 31.93821 | -102.20604 | 2859 ft | 2 kts | 173° |
| 2026-04-24 22:30 | 31.93804 | -102.20602 | 2859 ft | 2 kts | 173° |
| 2026-04-24 22:31 | 31.93784 | -102.20597 | 2859 ft | 3 kts | 163° |
| 2026-04-24 22:31 | 31.93763 | -102.20585 | 2858 ft | 4 kts | 137° |
| 2026-04-24 22:31 | 31.93761 | -102.20538 | 2859 ft | 6 kts | 53° |
| 2026-04-24 22:31 | 31.93794 | -102.20506 | 2859 ft | 5 kts | 36° |
| 2026-04-24 22:32 | 31.93821 | -102.20467 | 2858 ft | 6 kts | 65° |
| 2026-04-24 22:32 | 31.93833 | -102.20423 | 2859 ft | 5 kts | 75° |
| 2026-04-24 22:32 | 31.93841 | -102.20382 | 2859 ft | 4 kts | 81° |
| 2026-04-24 22:32 | 31.93842 | -102.20338 | 2859 ft | 6 kts | 94° |
| 2026-04-24 22:33 | 31.93836 | -102.20263 | 2857 ft | 11 kts | 95° |
| 2026-04-24 22:33 | 31.93830 | -102.20149 | 2856 ft | 15 kts | 92° |
| 2026-04-24 22:33 | 31.93827 | -102.20023 | 2855 ft | 15 kts | 90° |
| 2026-04-24 22:33 | 31.93827 | -102.19900 | 2855 ft | 14 kts | 89° |
| 2026-04-24 22:34 | 31.93828 | -102.19787 | 2855 ft | 12 kts | 90° |
| 2026-04-24 22:34 | 31.93820 | -102.19706 | 2855 ft | 5 kts | 111° |
| 2026-04-24 22:34 | 31.93807 | -102.19676 | 2855 ft | 3 kts | 125° |
| 2026-04-24 22:34 | 31.93801 | -102.19667 | 2855 ft | 0 kts | 128° |
| 2026-04-24 22:35 | 31.93798 | -102.19662 | 2855 ft | 0 kts | 129° |
| 2026-04-24 22:35 | 31.93787 | -102.19647 | 2855 ft | 4 kts | 130° |
| 2026-04-24 22:35 | 31.93759 | -102.19609 | 2855 ft | 7 kts | 131° |
| 2026-04-24 22:35 | 31.93727 | -102.19556 | 2855 ft | 8 kts | 116° |
| 2026-04-24 22:36 | 31.93736 | -102.19471 | 2855 ft | 15 kts | 61° |
| 2026-04-24 22:36 | 31.93796 | -102.19366 | 2855 ft | 14 kts | 53° |
| 2026-04-24 22:36 | 31.93850 | -102.19273 | 2857 ft | 11 kts | 72° |
| 2026-04-24 22:36 | 31.93891 | -102.19292 | 2857 ft | 9 kts | 300° |
| 2026-04-24 22:37 | 31.93945 | -102.19429 | 2857 ft | 43 kts | 293° |
| 2026-04-24 22:37 | 31.94182 | -102.20097 | 2859 ft | 131 kts | 293° |
| 2026-04-24 22:37 | 31.94645 | -102.21307 | 3128 ft | 181 kts | 294° |
| 2026-04-24 22:37 | 31.95257 | -102.22697 | 3760 ft | 204 kts | 293° |
| 2026-04-24 22:38 | 31.95707 | -102.24256 | 4568 ft | 201 kts | 271° |
| 2026-04-24 22:38 | 31.95289 | -102.25803 | 5230 ft | 212 kts | 234° |
| 2026-04-24 22:38 | 31.93985 | -102.26855 | 5322 ft | 256 kts | 202° |
| 2026-04-24 22:38 | 31.92022 | -102.27090 | 4930 ft | 316 kts | 179° |
| 2026-04-24 22:39 | 31.89812 | -102.26560 | 5764 ft | 332 kts | 163° |
| 2026-04-24 22:39 | 31.87919 | -102.25094 | 7099 ft | 327 kts | 134° |
| 2026-04-24 22:39 | 31.86869 | -102.22820 | 8287 ft | 323 kts | 104° |
| 2026-04-24 22:39 | 31.86811 | -102.20292 | 9486 ft | 314 kts | 82° |
| 2026-04-24 22:40 | 31.87193 | -102.17763 | 10421 ft | 316 kts | 78° |
| 2026-04-24 22:40 | 31.87663 | -102.15193 | 10957 ft | 334 kts | 77° |
| 2026-04-24 22:40 | 31.88147 | -102.12472 | 11471 ft | 350 kts | 78° |
| 2026-04-24 22:40 | 31.88612 | -102.09596 | 11973 ft | 367 kts | 79° |
| 2026-04-24 22:41 | 31.89068 | -102.06559 | 12418 ft | 384 kts | 79° |
| 2026-04-24 22:41 | 31.89521 | -102.03433 | 12825 ft | 400 kts | 80° |
| 2026-04-24 22:41 | 31.89988 | -102.00153 | 13228 ft | 415 kts | 80° |
| 2026-04-24 22:41 | 31.90470 | -101.96750 | 13911 ft | 422 kts | 80° |
| 2026-04-24 22:42 | 31.90951 | -101.93354 | 14649 ft | 426 kts | 80° |
| 2026-04-24 22:42 | 31.91439 | -101.89913 | 15327 ft | 431 kts | 80° |
| 2026-04-24 22:42 | 31.91930 | -101.86445 | 15992 ft | 436 kts | 79° |
| 2026-04-24 22:42 | 31.92436 | -101.82872 | 16594 ft | 442 kts | 79° |
| 2026-04-24 22:43 | 31.92938 | -101.79316 | 17281 ft | 445 kts | 79° |
| 2026-04-24 22:43 | 31.93441 | -101.75728 | 17837 ft | 452 kts | 79° |
| 2026-04-24 22:43 | 31.93950 | -101.72091 | 18424 ft | 456 kts | 79° |
| 2026-04-24 22:43 | 31.94472 | -101.68362 | 19013 ft | 461 kts | 79° |
| 2026-04-24 22:44 | 31.94995 | -101.64641 | 19564 ft | 465 kts | 79° |
| 2026-04-24 22:44 | 31.95525 | -101.60873 | 20080 ft | 471 kts | 78° |
| 2026-04-24 22:44 | 31.96058 | -101.57072 | 20616 ft | 475 kts | 78° |
| 2026-04-24 22:44 | 31.96594 | -101.53230 | 21104 ft | 480 kts | 79° |
| 2026-04-24 22:45 | 31.97132 | -101.49360 | 21623 ft | 484 kts | 78° |
| 2026-04-24 22:45 | 31.97673 | -101.45444 | 22110 ft | 488 kts | 78° |
| 2026-04-24 22:45 | 31.98214 | -101.41500 | 22591 ft | 491 kts | 78° |
| 2026-04-24 22:45 | 31.98758 | -101.37527 | 23049 ft | 495 kts | 78° |
| 2026-04-24 22:46 | 31.99306 | -101.33523 | 23487 ft | 499 kts | 79° |
| 2026-04-24 22:46 | 31.99860 | -101.29468 | 23900 ft | 504 kts | 79° |
| 2026-04-24 22:46 | 32.00414 | -101.25393 | 24337 ft | 507 kts | 79° |
| 2026-04-24 22:46 | 32.00970 | -101.21288 | 24731 ft | 511 kts | 79° |
| 2026-04-24 22:47 | 32.01528 | -101.17144 | 25119 ft | 515 kts | 79° |
| 2026-04-24 22:47 | 32.02087 | -101.13005 | 25497 ft | 518 kts | 79° |
| 2026-04-24 22:47 | 32.02655 | -101.08785 | 25892 ft | 521 kts | 79° |
| 2026-04-24 22:47 | 32.03217 | -101.04601 | 26261 ft | 524 kts | 78° |
| 2026-04-24 22:48 | 32.03784 | -101.00367 | 26627 ft | 527 kts | 78° |
| 2026-04-24 22:48 | 32.04360 | -100.96055 | 26929 ft | 531 kts | 78° |
| 2026-04-24 22:48 | 32.04930 | -100.91772 | 27300 ft | 533 kts | 79° |
| 2026-04-24 22:48 | 32.05492 | -100.87524 | 27825 ft | 532 kts | 79° |
| 2026-04-24 22:49 | 32.06064 | -100.83190 | 28336 ft | 530 kts | 78° |
| 2026-04-24 22:49 | 32.06625 | -100.78932 | 28790 ft | 531 kts | 78° |
| 2026-04-24 22:49 | 32.07187 | -100.74673 | 29216 ft | 531 kts | 78° |
| 2026-04-24 22:49 | 32.07759 | -100.70362 | 29673 ft | 531 kts | 79° |
| 2026-04-24 22:50 | 32.08324 | -100.66080 | 30125 ft | 530 kts | 78° |
| 2026-04-24 22:50 | 32.08889 | -100.61815 | 30571 ft | 530 kts | 78° |
| 2026-04-24 22:50 | 32.09457 | -100.57521 | 31040 ft | 528 kts | 78° |
| 2026-04-24 22:50 | 32.10014 | -100.53260 | 31455 ft | 528 kts | 78° |
| 2026-04-24 22:51 | 32.10566 | -100.48981 | 31792 ft | 530 kts | 78° |
| 2026-04-24 22:51 | 32.11115 | -100.44733 | 32198 ft | 529 kts | 78° |
| 2026-04-24 22:51 | 32.11666 | -100.40466 | 32665 ft | 528 kts | 78° |
| 2026-04-24 22:51 | 32.12215 | -100.36156 | 33026 ft | 528 kts | 78° |
| 2026-04-24 22:52 | 32.12753 | -100.31931 | 33371 ft | 528 kts | 79° |
| 2026-04-24 22:52 | 32.13303 | -100.27650 | 33665 ft | 529 kts | 78° |
| 2026-04-24 22:52 | 32.13853 | -100.23384 | 33928 ft | 531 kts | 78° |
| 2026-04-24 22:52 | 32.14406 | -100.19064 | 34314 ft | 530 kts | 78° |
| 2026-04-24 22:53 | 32.14948 | -100.14817 | 34664 ft | 529 kts | 78° |
| 2026-04-24 22:53 | 32.15502 | -100.10525 | 34849 ft | 530 kts | 78° |
| 2026-04-24 22:53 | 32.16661 | -100.01860 | 34851 ft | 530 kts | 78° |
| 2026-04-24 22:54 | 32.17745 | -99.93279 | 34841 ft | 529 kts | 79° |
| 2026-04-24 22:54 | 32.18720 | -99.84586 | 34843 ft | 531 kts | 83° |
| 2026-04-24 22:55 | 32.19005 | -99.75832 | 34840 ft | 533 kts | 89° |
| 2026-04-24 22:55 | 32.18855 | -99.67094 | 34843 ft | 534 kts | 90° |
| 2026-04-24 22:56 | 32.18641 | -99.58354 | 34843 ft | 533 kts | 90° |
| 2026-04-24 22:56 | 32.18450 | -99.49623 | 34845 ft | 533 kts | 90° |
| 2026-04-24 22:57 | 32.18311 | -99.40925 | 34846 ft | 532 kts | 89° |
| 2026-04-24 22:57 | 32.18176 | -99.32182 | 34846 ft | 533 kts | 90° |
| 2026-04-24 22:58 | 32.18056 | -99.23482 | 34841 ft | 533 kts | 89° |
| 2026-04-24 22:58 | 32.17942 | -99.14784 | 34830 ft | 534 kts | 89° |
| 2026-04-24 22:59 | 32.17835 | -99.06048 | 34824 ft | 534 kts | 90° |
| 2026-04-24 22:59 | 32.17696 | -98.97369 | 34271 ft | 526 kts | 89° |
| 2026-04-24 23:00 | 32.17622 | -98.93074 | 33466 ft | 525 kts | 89° |
| 2026-04-24 23:00 | 32.17548 | -98.88827 | 32858 ft | 518 kts | 89° |
| 2026-04-24 23:00 | 32.17485 | -98.84626 | 32280 ft | 511 kts | 89° |
| 2026-04-24 23:00 | 32.17414 | -98.80419 | 31617 ft | 507 kts | 89° |
| 2026-04-24 23:01 | 32.17354 | -98.76306 | 31007 ft | 500 kts | 87° |
| 2026-04-24 23:01 | 32.17456 | -98.72289 | 30414 ft | 493 kts | 84° |
| 2026-04-24 23:01 | 32.17716 | -98.68308 | 29920 ft | 484 kts | 81° |
| 2026-04-24 23:01 | 32.18062 | -98.64387 | 29817 ft | 478 kts | 80° |
| 2026-04-24 23:02 | 32.18446 | -98.60463 | 29805 ft | 486 kts | 79° |
| 2026-04-24 23:02 | 32.19262 | -98.52402 | 29799 ft | 504 kts | 80° |
| 2026-04-24 23:03 | 32.20039 | -98.44203 | 29798 ft | 505 kts | 80° |
| 2026-04-24 23:03 | 32.20768 | -98.35934 | 29802 ft | 504 kts | 81° |
| 2026-04-24 23:03 | 32.21120 | -98.31864 | 29347 ft | 497 kts | 81° |
| 2026-04-24 23:04 | 32.21470 | -98.27863 | 28539 ft | 494 kts | 81° |
| 2026-04-24 23:04 | 32.21817 | -98.23852 | 27883 ft | 488 kts | 81° |
| 2026-04-24 23:04 | 32.22153 | -98.19923 | 27214 ft | 481 kts | 81° |
| 2026-04-24 23:04 | 32.22488 | -98.16022 | 26538 ft | 475 kts | 82° |
| 2026-04-24 23:05 | 32.22819 | -98.12166 | 25887 ft | 469 kts | 82° |
| 2026-04-24 23:05 | 32.23145 | -98.08364 | 25237 ft | 462 kts | 81° |
| 2026-04-24 23:05 | 32.23463 | -98.04668 | 24573 ft | 457 kts | 82° |
| 2026-04-24 23:05 | 32.23779 | -98.00970 | 23903 ft | 451 kts | 82° |
| 2026-04-24 23:06 | 32.24087 | -97.97318 | 23225 ft | 445 kts | 82° |
| 2026-04-24 23:06 | 32.24391 | -97.93707 | 22574 ft | 439 kts | 82° |
| 2026-04-24 23:06 | 32.24688 | -97.90151 | 21859 ft | 435 kts | 82° |
| 2026-04-24 23:06 | 32.24979 | -97.86651 | 21197 ft | 430 kts | 83° |
| 2026-04-24 23:07 | 32.25269 | -97.83153 | 20524 ft | 425 kts | 83° |
| 2026-04-24 23:07 | 32.25549 | -97.79722 | 19875 ft | 420 kts | 83° |
| 2026-04-24 23:07 | 32.25824 | -97.76337 | 19226 ft | 415 kts | 83° |
| 2026-04-24 23:07 | 32.26094 | -97.72982 | 18568 ft | 410 kts | 83° |
| 2026-04-24 23:08 | 32.26355 | -97.69668 | 17922 ft | 405 kts | 84° |
| 2026-04-24 23:08 | 32.26611 | -97.66388 | 17251 ft | 402 kts | 84° |
| 2026-04-24 23:08 | 32.26863 | -97.63140 | 16586 ft | 398 kts | 84° |
| 2026-04-24 23:08 | 32.27117 | -97.59892 | 15890 ft | 395 kts | 84° |
| 2026-04-24 23:09 | 32.27367 | -97.56678 | 15246 ft | 391 kts | 84° |
| 2026-04-24 23:09 | 32.27616 | -97.53535 | 14591 ft | 387 kts | 84° |
| 2026-04-24 23:09 | 32.27913 | -97.50370 | 13926 ft | 385 kts | 81° |
| 2026-04-24 23:09 | 32.28470 | -97.47334 | 13481 ft | 374 kts | 70° |
| 2026-04-24 23:10 | 32.29400 | -97.44570 | 13257 ft | 357 kts | 63° |
| 2026-04-24 23:10 | 32.30488 | -97.41979 | 13057 ft | 342 kts | 59° |
| 2026-04-24 23:10 | 32.31579 | -97.39547 | 12654 ft | 337 kts | 59° |
| 2026-04-24 23:10 | 32.32676 | -97.37096 | 12183 ft | 334 kts | 59° |
| 2026-04-24 23:11 | 32.33727 | -97.34689 | 11724 ft | 331 kts | 61° |
| 2026-04-24 23:11 | 32.34756 | -97.32262 | 11223 ft | 330 kts | 62° |
| 2026-04-24 23:11 | 32.35752 | -97.29874 | 11001 ft | 317 kts | 62° |
| 2026-04-24 23:11 | 32.36706 | -97.27554 | 10637 ft | 313 kts | 62° |
| 2026-04-24 23:12 | 32.37656 | -97.25240 | 10189 ft | 311 kts | 62° |
| 2026-04-24 23:12 | 32.38587 | -97.22975 | 9790 ft | 308 kts | 62° |
| 2026-04-24 23:12 | 32.39520 | -97.20685 | 9377 ft | 305 kts | 62° |
| 2026-04-24 23:12 | 32.40418 | -97.18468 | 9073 ft | 300 kts | 62° |
| 2026-04-24 23:13 | 32.41326 | -97.16225 | 9034 ft | 301 kts | 62° |
| 2026-04-24 23:13 | 32.42230 | -97.14001 | 9026 ft | 303 kts | 62° |
| 2026-04-24 23:13 | 32.43143 | -97.11762 | 8960 ft | 299 kts | 62° |
| 2026-04-24 23:13 | 32.44044 | -97.09547 | 8514 ft | 299 kts | 63° |
| 2026-04-24 23:14 | 32.44934 | -97.07362 | 8083 ft | 297 kts | 63° |
| 2026-04-24 23:14 | 32.45821 | -97.05157 | 7695 ft | 294 kts | 63° |
| 2026-04-24 23:14 | 32.46690 | -97.02968 | 7301 ft | 291 kts | 64° |
| 2026-04-24 23:14 | 32.47526 | -97.00847 | 7046 ft | 286 kts | 64° |
| 2026-04-24 23:15 | 32.48374 | -96.98689 | 7030 ft | 288 kts | 64° |
| 2026-04-24 23:15 | 32.49215 | -96.96551 | 6976 ft | 283 kts | 64° |
| 2026-04-24 23:15 | 32.50037 | -96.94469 | 6488 ft | 285 kts | 64° |
| 2026-04-24 23:15 | 32.50884 | -96.92321 | 6056 ft | 284 kts | 64° |
| 2026-04-24 23:16 | 32.51708 | -96.90224 | 5660 ft | 282 kts | 64° |
| 2026-04-24 23:16 | 32.52542 | -96.88125 | 5267 ft | 279 kts | 63° |
| 2026-04-24 23:16 | 32.53381 | -96.86092 | 5038 ft | 275 kts | 63° |
| 2026-04-24 23:16 | 32.54232 | -96.84057 | 5021 ft | 278 kts | 62° |
| 2026-04-24 23:17 | 32.55099 | -96.81989 | 5016 ft | 278 kts | 63° |
| 2026-04-24 23:17 | 32.55950 | -96.79951 | 5016 ft | 279 kts | 63° |
| 2026-04-24 23:17 | 32.56829 | -96.77910 | 5015 ft | 279 kts | 59° |
| 2026-04-24 23:17 | 32.57996 | -96.76100 | 5008 ft | 275 kts | 38° |
| 2026-04-24 23:18 | 32.59665 | -96.75012 | 5016 ft | 271 kts | 17° |
| 2026-04-24 23:18 | 32.61458 | -96.74378 | 5015 ft | 270 kts | 12° |
| 2026-04-24 23:18 | 32.63267 | -96.73806 | 5013 ft | 270 kts | 12° |
| 2026-04-24 23:18 | 32.65095 | -96.73229 | 5013 ft | 270 kts | 12° |
| 2026-04-24 23:19 | 32.66904 | -96.72661 | 5014 ft | 271 kts | 12° |
| 2026-04-24 23:19 | 32.68739 | -96.72082 | 5014 ft | 271 kts | 12° |
| 2026-04-24 23:19 | 32.70555 | -96.71509 | 5015 ft | 272 kts | 12° |
| 2026-04-24 23:19 | 32.72468 | -96.70914 | 5011 ft | 283 kts | 12° |
| 2026-04-24 23:20 | 32.74336 | -96.70330 | 5008 ft | 268 kts | 12° |
| 2026-04-24 23:20 | 32.76097 | -96.69780 | 4681 ft | 265 kts | 12° |
| 2026-04-24 23:20 | 32.77907 | -96.69219 | 4198 ft | 267 kts | 12° |
| 2026-04-24 23:20 | 32.79694 | -96.68657 | 3788 ft | 266 kts | 13° |
| 2026-04-24 23:21 | 32.81515 | -96.68342 | 3384 ft | 261 kts | 353° |
| 2026-04-24 23:21 | 32.83192 | -96.68972 | 3065 ft | 253 kts | 327° |
| 2026-04-24 23:21 | 32.84673 | -96.70145 | 3021 ft | 254 kts | 322° |
| 2026-04-24 23:21 | 32.86108 | -96.71377 | 3009 ft | 251 kts | 322° |
| 2026-04-24 23:22 | 32.87468 | -96.72541 | 3011 ft | 237 kts | 322° |
| 2026-04-24 23:22 | 32.88807 | -96.73686 | 3013 ft | 237 kts | 322° |
| 2026-04-24 23:22 | 32.90161 | -96.74837 | 3014 ft | 238 kts | 322° |
| 2026-04-24 23:22 | 32.91499 | -96.75972 | 3015 ft | 237 kts | 322° |
| 2026-04-24 23:23 | 32.92843 | -96.77104 | 3015 ft | 237 kts | 322° |
| 2026-04-24 23:23 | 32.94214 | -96.78246 | 3018 ft | 237 kts | 323° |
| 2026-04-24 23:23 | 32.95537 | -96.79380 | 3016 ft | 237 kts | 319° |
| 2026-04-24 23:23 | 32.96815 | -96.80613 | 3015 ft | 236 kts | 318° |
| 2026-04-24 23:24 | 32.98084 | -96.81867 | 3015 ft | 236 kts | 318° |
| 2026-04-24 23:24 | 32.99327 | -96.83099 | 3003 ft | 224 kts | 318° |
| 2026-04-24 23:24 | 33.00381 | -96.84373 | 2897 ft | 209 kts | 298° |
| 2026-04-24 23:24 | 33.00733 | -96.85955 | 2787 ft | 197 kts | 274° |
| 2026-04-24 23:25 | 33.00811 | -96.87568 | 2576 ft | 193 kts | 272° |
| 2026-04-24 23:25 | 33.01019 | -96.89135 | 2517 ft | 191 kts | 290° |
| 2026-04-24 23:25 | 33.01907 | -96.90307 | 2599 ft | 196 kts | 319° |
| 2026-04-24 23:25 | 33.02769 | -96.91528 | 3035 ft | 192 kts | 281° |